Terminal Aerodrome Forecast
Issued by NWS

Home | Current Version | Previous Version | Text Only | Print | Product List | Glossary On
Versions: 1 2 3 4 5 6 7 8 9 10 11 12 13 14 15 16 17 18 19 20 21 22 23 24 25 26
058
FTUS41 KBOX 130540
TAFACK
TAF
KACK 130540Z 1306/1406 35009KT 1SM -SN OVC020
     FM130900 32012KT P6SM VCSH OVC025
     FM131100 31012G19KT P6SM VCSH OVC035
     FM131300 30014G22KT P6SM BKN035
     FM131500 31019KT P6SM BKN025
     FM131700 31022G34KT P6SM BKN025
     FM132100 30025G42KT P6SM BKN025
     FM140200 30025G41KT P6SM VCSH BKN025=

USA.gov is the U.S. government's official web portal to all federal, state and local government web resources and services.